sensor_id;sensor_type;location;lat;lon;timestamp;P1;durP1;ratioP1;P2;durP2;ratioP2
5014;SDS011;2526;51.060;4.228;2023-08-06T00:01:27;3.97;;;0.70;;
5014;SDS011;2526;51.060;4.228;2023-08-06T00:03:52;1.45;;;1.23;;
5014;SDS011;2526;51.060;4.228;2023-08-06T00:06:18;0.57;;;0.45;;
5014;SDS011;2526;51.060;4.228;2023-08-06T00:08:43;1.55;;;0.73;;
5014;SDS011;2526;51.060;4.228;2023-08-06T00:11:09;2.90;;;1.10;;
5014;SDS011;2526;51.060;4.228;2023-08-06T00:13:34;0.68;;;0.47;;
5014;SDS011;2526;51.060;4.228;2023-08-06T00:16:09;3.63;;;0.95;;
5014;SDS011;2526;51.060;4.228;2023-08-06T00:18:35;3.22;;;1.00;;
5014;SDS011;2526;51.060;4.228;2023-08-06T00:21:00;1.42;;;1.02;;
5014;SDS011;2526;51.060;4.228;2023-08-06T00:23:26;3.33;;;1.65;;
5014;SDS011;2526;51.060;4.228;2023-08-06T00:25:51;1.40;;;0.98;;
5014;SDS011;2526;51.060;4.228;2023-08-06T00:28:16;3.92;;;1.20;;
5014;SDS011;2526;51.060;4.228;2023-08-06T00:30:42;8.63;;;1.33;;
5014;SDS011;2526;51.060;4.228;2023-08-06T00:33:07;3.30;;;1.70;;
5014;SDS011;2526;51.060;4.228;2023-08-06T00:35:33;3.40;;;1.08;;
5014;SDS011;2526;51.060;4.228;2023-08-06T00:37:58;0.82;;;0.82;;
5014;SDS011;2526;51.060;4.228;2023-08-06T00:40:24;8.73;;;1.30;;
5014;SDS011;2526;51.060;4.228;2023-08-06T00:42:49;2.35;;;1.52;;
5014;SDS011;2526;51.060;4.228;2023-08-06T00:45:15;2.72;;;1.20;;
5014;SDS011;2526;51.060;4.228;2023-08-06T00:47:40;5.05;;;2.13;;
5014;SDS011;2526;51.060;4.228;2023-08-06T00:50:07;2.17;;;1.25;;
5014;SDS011;2526;51.060;4.228;2023-08-06T00:52:33;5.10;;;1.50;;
5014;SDS011;2526;51.060;4.228;2023-08-06T00:54:58;4.32;;;1.48;;
5014;SDS011;2526;51.060;4.228;2023-08-06T00:57:24;4.78;;;1.60;;
5014;SDS011;2526;51.060;4.228;2023-08-06T00:59:50;4.55;;;1.48;;
5014;SDS011;2526;51.060;4.228;2023-08-06T01:02:15;1.90;;;1.10;;
5014;SDS011;2526;51.060;4.228;2023-08-06T01:04:50;1.92;;;1.42;;
5014;SDS011;2526;51.060;4.228;2023-08-06T01:14:15;3.40;;;1.45;;
5014;SDS011;2526;51.060;4.228;2023-08-06T01:17:02;1.73;;;1.23;;
5014;SDS011;2526;51.060;4.228;2023-08-06T01:19:48;5.75;;;1.52;;
5014;SDS011;2526;51.060;4.228;2023-08-06T01:22:35;1.75;;;1.50;;
5014;SDS011;2526;51.060;4.228;2023-08-06T01:25:45;2.63;;;1.75;;
5014;SDS011;2526;51.060;4.228;2023-08-06T01:31:27;8.88;;;3.40;;
5014;SDS011;2526;51.060;4.228;2023-08-06T01:34:28;4.72;;;2.90;;
5014;SDS011;2526;51.060;4.228;2023-08-06T01:37:00;3.30;;;1.92;;
5014;SDS011;2526;51.060;4.228;2023-08-06T01:39:54;4.00;;;2.55;;
5014;SDS011;2526;51.060;4.228;2023-08-06T01:42:19;4.45;;;2.40;;
5014;SDS011;2526;51.060;4.228;2023-08-06T01:44:44;5.82;;;3.03;;
5014;SDS011;2526;51.060;4.228;2023-08-06T01:47:10;4.97;;;3.58;;
5014;SDS011;2526;51.060;4.228;2023-08-06T01:49:35;4.22;;;2.83;;
5014;SDS011;2526;51.060;4.228;2023-08-06T01:52:01;5.13;;;3.33;;
5014;SDS011;2526;51.060;4.228;2023-08-06T01:54:26;3.20;;;2.65;;
5014;SDS011;2526;51.060;4.228;2023-08-06T01:56:53;9.55;;;3.08;;
5014;SDS011;2526;51.060;4.228;2023-08-06T01:59:18;3.85;;;2.17;;
5014;SDS011;2526;51.060;4.228;2023-08-06T02:01:44;10.73;;;3.63;;
5014;SDS011;2526;51.060;4.228;2023-08-06T02:04:10;3.58;;;2.45;;
5014;SDS011;2526;51.060;4.228;2023-08-06T02:06:35;4.00;;;2.67;;
5014;SDS011;2526;51.060;4.228;2023-08-06T02:09:01;11.85;;;3.90;;
5014;SDS011;2526;51.060;4.228;2023-08-06T02:11:26;5.18;;;3.75;;
5014;SDS011;2526;51.060;4.228;2023-08-06T02:13:51;5.40;;;4.05;;
5014;SDS011;2526;51.060;4.228;2023-08-06T02:16:17;5.15;;;4.18;;
5014;SDS011;2526;51.060;4.228;2023-08-06T02:18:42;6.88;;;3.65;;
5014;SDS011;2526;51.060;4.228;2023-08-06T02:21:08;9.35;;;2.72;;
5014;SDS011;2526;51.060;4.228;2023-08-06T02:23:33;4.80;;;2.70;;
5014;SDS011;2526;51.060;4.228;2023-08-06T02:26:02;5.53;;;2.70;;
5014;SDS011;2526;51.060;4.228;2023-08-06T02:28:28;7.47;;;3.17;;
5014;SDS011;2526;51.060;4.228;2023-08-06T02:30:54;6.60;;;4.25;;
5014;SDS011;2526;51.060;4.228;2023-08-06T02:33:19;7.05;;;4.65;;
5014;SDS011;2526;51.060;4.228;2023-08-06T02:35:44;7.50;;;3.53;;
5014;SDS011;2526;51.060;4.228;2023-08-06T02:38:10;5.75;;;3.70;;
5014;SDS011;2526;51.060;4.228;2023-08-06T02:40:35;5.80;;;3.10;;
5014;SDS011;2526;51.060;4.228;2023-08-06T02:43:01;5.40;;;2.88;;
5014;SDS011;2526;51.060;4.228;2023-08-06T02:45:26;8.73;;;4.30;;
5014;SDS011;2526;51.060;4.228;2023-08-06T02:47:52;6.97;;;3.65;;
5014;SDS011;2526;51.060;4.228;2023-08-06T02:50:17;5.88;;;3.55;;
5014;SDS011;2526;51.060;4.228;2023-08-06T02:52:43;6.88;;;4.43;;
5014;SDS011;2526;51.060;4.228;2023-08-06T02:55:08;11.40;;;4.40;;
5014;SDS011;2526;51.060;4.228;2023-08-06T02:57:33;11.80;;;3.45;;
5014;SDS011;2526;51.060;4.228;2023-08-06T02:59:59;12.80;;;4.60;;
5014;SDS011;2526;51.060;4.228;2023-08-06T03:02:24;7.85;;;4.25;;
5014;SDS011;2526;51.060;4.228;2023-08-06T03:04:50;9.85;;;4.13;;
5014;SDS011;2526;51.060;4.228;2023-08-06T03:07:16;7.38;;;4.50;;
5014;SDS011;2526;51.060;4.228;2023-08-06T03:09:41;7.28;;;3.72;;
5014;SDS011;2526;51.060;4.228;2023-08-06T03:12:07;5.10;;;2.85;;
5014;SDS011;2526;51.060;4.228;2023-08-06T03:14:32;4.72;;;2.63;;
5014;SDS011;2526;51.060;4.228;2023-08-06T03:16:58;11.07;;;2.53;;
5014;SDS011;2526;51.060;4.228;2023-08-06T03:19:23;3.83;;;2.15;;
5014;SDS011;2526;51.060;4.228;2023-08-06T03:21:49;2.30;;;1.38;;
5014;SDS011;2526;51.060;4.228;2023-08-06T03:24:14;5.15;;;2.35;;
5014;SDS011;2526;51.060;4.228;2023-08-06T03:26:39;1.85;;;1.30;;
5014;SDS011;2526;51.060;4.228;2023-08-06T03:29:05;1.90;;;1.70;;
5014;SDS011;2526;51.060;4.228;2023-08-06T03:31:30;1.30;;;1.08;;
5014;SDS011;2526;51.060;4.228;2023-08-06T03:33:56;1.27;;;1.00;;
5014;SDS011;2526;51.060;4.228;2023-08-06T03:36:21;0.47;;;0.47;;
5014;SDS011;2526;51.060;4.228;2023-08-06T03:38:47;0.80;;;0.50;;
5014;SDS011;2526;51.060;4.228;2023-08-06T03:41:12;1.00;;;0.70;;
5014;SDS011;2526;51.060;4.228;2023-08-06T03:43:38;1.88;;;0.95;;
5014;SDS011;2526;51.060;4.228;2023-08-06T03:46:03;1.35;;;0.82;;
5014;SDS011;2526;51.060;4.228;2023-08-06T03:48:28;0.85;;;0.70;;
5014;SDS011;2526;51.060;4.228;2023-08-06T03:50:54;0.98;;;0.40;;
5014;SDS011;2526;51.060;4.228;2023-08-06T03:53:19;2.10;;;0.82;;
5014;SDS011;2526;51.060;4.228;2023-08-06T03:55:45;0.47;;;0.47;;
5014;SDS011;2526;51.060;4.228;2023-08-06T03:58:10;0.88;;;0.63;;
5014;SDS011;2526;51.060;4.228;2023-08-06T04:00:36;8.30;;;1.15;;
5014;SDS011;2526;51.060;4.228;2023-08-06T04:03:01;4.47;;;0.60;;
5014;SDS011;2526;51.060;4.228;2023-08-06T04:05:27;2.50;;;0.73;;
5014;SDS011;2526;51.060;4.228;2023-08-06T04:07:52;2.47;;;1.10;;
5014;SDS011;2526;51.060;4.228;2023-08-06T04:10:17;0.95;;;0.70;;
5014;SDS011;2526;51.060;4.228;2023-08-06T04:12:43;4.68;;;1.23;;
5014;SDS011;2526;51.060;4.228;2023-08-06T04:15:08;2.65;;;1.33;;
5014;SDS011;2526;51.060;4.228;2023-08-06T04:17:34;1.83;;;1.10;;
5014;SDS011;2526;51.060;4.228;2023-08-06T04:19:59;0.63;;;0.55;;
5014;SDS011;2526;51.060;4.228;2023-08-06T04:22:25;1.40;;;1.20;;
5014;SDS011;2526;51.060;4.228;2023-08-06T04:24:51;2.33;;;1.35;;
5014;SDS011;2526;51.060;4.228;2023-08-06T04:27:17;4.05;;;2.25;;
5014;SDS011;2526;51.060;4.228;2023-08-06T04:29:43;3.88;;;2.38;;
5014;SDS011;2526;51.060;4.228;2023-08-06T04:32:09;4.68;;;1.75;;
5014;SDS011;2526;51.060;4.228;2023-08-06T04:34:35;2.33;;;1.73;;
5014;SDS011;2526;51.060;4.228;2023-08-06T04:37:01;2.97;;;2.00;;
5014;SDS011;2526;51.060;4.228;2023-08-06T04:39:26;4.55;;;1.50;;
5014;SDS011;2526;51.060;4.228;2023-08-06T04:41:52;1.63;;;1.50;;
5014;SDS011;2526;51.060;4.228;2023-08-06T04:44:17;4.13;;;2.05;;
5014;SDS011;2526;51.060;4.228;2023-08-06T04:46:42;5.90;;;2.28;;
5014;SDS011;2526;51.060;4.228;2023-08-06T04:49:08;2.22;;;1.45;;
5014;SDS011;2526;51.060;4.228;2023-08-06T04:51:33;3.10;;;1.75;;
5014;SDS011;2526;51.060;4.228;2023-08-06T04:53:59;6.10;;;3.35;;
5014;SDS011;2526;51.060;4.228;2023-08-06T04:56:24;6.60;;;1.85;;
5014;SDS011;2526;51.060;4.228;2023-08-06T04:58:50;4.40;;;1.52;;
5014;SDS011;2526;51.060;4.228;2023-08-06T05:01:15;4.32;;;1.65;;
5014;SDS011;2526;51.060;4.228;2023-08-06T05:03:41;5.45;;;1.33;;
5014;SDS011;2526;51.060;4.228;2023-08-06T05:06:06;9.13;;;2.53;;
5014;SDS011;2526;51.060;4.228;2023-08-06T05:08:31;3.70;;;1.73;;
5014;SDS011;2526;51.060;4.228;2023-08-06T05:10:57;3.17;;;1.60;;
5014;SDS011;2526;51.060;4.228;2023-08-06T05:13:22;7.10;;;1.83;;
5014;SDS011;2526;51.060;4.228;2023-08-06T05:15:48;5.40;;;1.92;;
5014;SDS011;2526;51.060;4.228;2023-08-06T05:18:14;3.80;;;1.40;;
5014;SDS011;2526;51.060;4.228;2023-08-06T05:20:40;4.28;;;2.13;;
5014;SDS011;2526;51.060;4.228;2023-08-06T05:23:05;8.38;;;1.67;;
5014;SDS011;2526;51.060;4.228;2023-08-06T05:25:31;5.30;;;1.90;;
5014;SDS011;2526;51.060;4.228;2023-08-06T05:27:56;6.05;;;2.38;;
5014;SDS011;2526;51.060;4.228;2023-08-06T05:30:22;2.40;;;1.10;;
5014;SDS011;2526;51.060;4.228;2023-08-06T05:32:47;5.47;;;2.30;;
5014;SDS011;2526;51.060;4.228;2023-08-06T05:35:13;2.05;;;1.02;;
5014;SDS011;2526;51.060;4.228;2023-08-06T05:37:38;4.00;;;1.25;;
5014;SDS011;2526;51.060;4.228;2023-08-06T05:40:04;5.88;;;1.77;;
5014;SDS011;2526;51.060;4.228;2023-08-06T05:42:30;9.00;;;0.95;;
5014;SDS011;2526;51.060;4.228;2023-08-06T05:44:55;3.45;;;1.80;;
5014;SDS011;2526;51.060;4.228;2023-08-06T05:47:21;1.98;;;1.40;;
5014;SDS011;2526;51.060;4.228;2023-08-06T05:49:46;2.17;;;1.50;;
5014;SDS011;2526;51.060;4.228;2023-08-06T05:52:11;2.95;;;1.05;;
5014;SDS011;2526;51.060;4.228;2023-08-06T05:54:37;1.65;;;1.15;;
5014;SDS011;2526;51.060;4.228;2023-08-06T05:57:02;4.43;;;2.10;;
5014;SDS011;2526;51.060;4.228;2023-08-06T05:59:28;7.32;;;2.70;;
5014;SDS011;2526;51.060;4.228;2023-08-06T06:01:53;4.25;;;1.67;;
5014;SDS011;2526;51.060;4.228;2023-08-06T06:04:19;2.92;;;1.30;;
5014;SDS011;2526;51.060;4.228;2023-08-06T06:06:44;2.97;;;1.80;;
5014;SDS011;2526;51.060;4.228;2023-08-06T06:09:10;1.77;;;1.35;;
5014;SDS011;2526;51.060;4.228;2023-08-06T06:11:35;4.75;;;1.90;;
5014;SDS011;2526;51.060;4.228;2023-08-06T06:14:01;10.57;;;2.10;;
5014;SDS011;2526;51.060;4.228;2023-08-06T06:16:26;7.25;;;2.55;;
5014;SDS011;2526;51.060;4.228;2023-08-06T06:18:52;2.83;;;1.42;;
5014;SDS011;2526;51.060;4.228;2023-08-06T06:21:17;3.60;;;1.90;;
5014;SDS011;2526;51.060;4.228;2023-08-06T06:23:42;3.58;;;1.60;;
5014;SDS011;2526;51.060;4.228;2023-08-06T06:26:08;5.13;;;3.10;;
5014;SDS011;2526;51.060;4.228;2023-08-06T06:28:35;6.63;;;1.45;;
5014;SDS011;2526;51.060;4.228;2023-08-06T06:31:01;9.05;;;1.85;;
5014;SDS011;2526;51.060;4.228;2023-08-06T06:33:27;8.82;;;1.63;;
5014;SDS011;2526;51.060;4.228;2023-08-06T06:35:52;6.80;;;2.55;;
5014;SDS011;2526;51.060;4.228;2023-08-06T06:38:17;4.05;;;2.08;;
5014;SDS011;2526;51.060;4.228;2023-08-06T06:40:43;9.27;;;1.98;;
5014;SDS011;2526;51.060;4.228;2023-08-06T06:43:08;4.03;;;1.63;;
5014;SDS011;2526;51.060;4.228;2023-08-06T06:45:34;6.68;;;1.90;;
5014;SDS011;2526;51.060;4.228;2023-08-06T06:47:59;3.97;;;1.77;;
5014;SDS011;2526;51.060;4.228;2023-08-06T06:50:24;3.47;;;1.38;;
5014;SDS011;2526;51.060;4.228;2023-08-06T06:52:51;1.40;;;0.93;;
5014;SDS011;2526;51.060;4.228;2023-08-06T06:55:17;6.60;;;1.10;;
5014;SDS011;2526;51.060;4.228;2023-08-06T06:57:42;5.43;;;0.90;;
5014;SDS011;2526;51.060;4.228;2023-08-06T07:00:08;3.45;;;0.93;;
5014;SDS011;2526;51.060;4.228;2023-08-06T07:02:33;5.03;;;1.17;;
5014;SDS011;2526;51.060;4.228;2023-08-06T07:05:01;5.45;;;1.02;;
5014;SDS011;2526;51.060;4.228;2023-08-06T07:07:26;2.28;;;0.57;;
5014;SDS011;2526;51.060;4.228;2023-08-06T07:09:52;4.35;;;0.88;;
5014;SDS011;2526;51.060;4.228;2023-08-06T07:12:17;3.97;;;0.75;;
5014;SDS011;2526;51.060;4.228;2023-08-06T07:14:42;9.75;;;1.27;;
5014;SDS011;2526;51.060;4.228;2023-08-06T07:17:08;7.22;;;1.35;;
5014;SDS011;2526;51.060;4.228;2023-08-06T07:19:33;8.98;;;1.33;;
5014;SDS011;2526;51.060;4.228;2023-08-06T07:21:59;7.97;;;1.48;;
5014;SDS011;2526;51.060;4.228;2023-08-06T07:24:24;2.65;;;1.45;;
5014;SDS011;2526;51.060;4.228;2023-08-06T07:26:50;5.82;;;0.85;;
5014;SDS011;2526;51.060;4.228;2023-08-06T07:29:15;9.30;;;1.05;;
5014;SDS011;2526;51.060;4.228;2023-08-06T07:31:46;2.03;;;1.15;;
5014;SDS011;2526;51.060;4.228;2023-08-06T07:34:11;1.80;;;0.35;;
5014;SDS011;2526;51.060;4.228;2023-08-06T07:36:38;10.70;;;0.98;;
5014;SDS011;2526;51.060;4.228;2023-08-06T07:39:03;4.35;;;0.80;;
5014;SDS011;2526;51.060;4.228;2023-08-06T07:41:35;6.07;;;0.77;;
5014;SDS011;2526;51.060;4.228;2023-08-06T07:44:00;1.63;;;0.82;;
5014;SDS011;2526;51.060;4.228;2023-08-06T07:46:28;3.53;;;0.82;;
5014;SDS011;2526;51.060;4.228;2023-08-06T07:48:59;1.75;;;0.68;;
5014;SDS011;2526;51.060;4.228;2023-08-06T07:51:56;5.70;;;1.35;;
5014;SDS011;2526;51.060;4.228;2023-08-06T07:54:25;1.77;;;0.98;;
5014;SDS011;2526;51.060;4.228;2023-08-06T07:56:56;15.18;;;1.42;;
5014;SDS011;2526;51.060;4.228;2023-08-06T07:59:22;4.28;;;0.80;;
5014;SDS011;2526;51.060;4.228;2023-08-06T08:01:53;2.60;;;0.50;;
5014;SDS011;2526;51.060;4.228;2023-08-06T08:04:19;3.88;;;1.17;;
5014;SDS011;2526;51.060;4.228;2023-08-06T08:09:19;2.63;;;0.50;;
5014;SDS011;2526;51.060;4.228;2023-08-06T08:11:46;2.58;;;0.60;;
5014;SDS011;2526;51.060;4.228;2023-08-06T08:14:43;2.17;;;0.30;;
5014;SDS011;2526;51.060;4.228;2023-08-06T08:17:39;10.35;;;0.98;;
5014;SDS011;2526;51.060;4.228;2023-08-06T08:20:07;4.57;;;1.67;;
5014;SDS011;2526;51.060;4.228;2023-08-06T08:22:40;8.85;;;1.80;;
5014;SDS011;2526;51.060;4.228;2023-08-06T08:25:16;6.60;;;1.00;;
5014;SDS011;2526;51.060;4.228;2023-08-06T08:28:13;2.42;;;1.02;;
5014;SDS011;2526;51.060;4.228;2023-08-06T08:31:11;2.58;;;1.13;;
5014;SDS011;2526;51.060;4.228;2023-08-06T08:33:43;4.30;;;1.45;;
5014;SDS011;2526;51.060;4.228;2023-08-06T08:36:35;4.00;;;1.05;;
5014;SDS011;2526;51.060;4.228;2023-08-06T08:39:31;3.88;;;0.85;;
5014;SDS011;2526;51.060;4.228;2023-08-06T08:42:01;2.10;;;1.30;;
5014;SDS011;2526;51.060;4.228;2023-08-06T08:44:28;4.65;;;1.15;;
5014;SDS011;2526;51.060;4.228;2023-08-06T08:47:06;4.75;;;0.60;;
5014;SDS011;2526;51.060;4.228;2023-08-06T08:50:03;6.05;;;1.20;;
5014;SDS011;2526;51.060;4.228;2023-08-06T08:52:59;9.10;;;1.10;;
5014;SDS011;2526;51.060;4.228;2023-08-06T08:55:55;4.65;;;1.35;;
5014;SDS011;2526;51.060;4.228;2023-08-06T08:58:24;9.13;;;1.17;;
5014;SDS011;2526;51.060;4.228;2023-08-06T09:00:52;4.22;;;1.50;;
5014;SDS011;2526;51.060;4.228;2023-08-06T09:03:21;10.93;;;2.47;;
5014;SDS011;2526;51.060;4.228;2023-08-06T09:05:48;6.65;;;1.20;;
5014;SDS011;2526;51.060;4.228;2023-08-06T09:08:15;6.18;;;1.15;;
5014;SDS011;2526;51.060;4.228;2023-08-06T09:10:49;6.90;;;1.30;;
5014;SDS011;2526;51.060;4.228;2023-08-06T09:13:27;12.02;;;1.80;;
5014;SDS011;2526;51.060;4.228;2023-08-06T09:15:55;14.98;;;2.03;;
5014;SDS011;2526;51.060;4.228;2023-08-06T09:18:26;6.72;;;1.55;;
5014;SDS011;2526;51.060;4.228;2023-08-06T09:20:56;4.45;;;1.00;;
5014;SDS011;2526;51.060;4.228;2023-08-06T09:23:27;6.35;;;1.60;;
5014;SDS011;2526;51.060;4.228;2023-08-06T09:25:56;9.40;;;1.50;;
5014;SDS011;2526;51.060;4.228;2023-08-06T09:28:54;4.68;;;0.98;;
5014;SDS011;2526;51.060;4.228;2023-08-06T09:31:32;15.07;;;1.77;;
5014;SDS011;2526;51.060;4.228;2023-08-06T09:34:29;3.88;;;1.08;;
5014;SDS011;2526;51.060;4.228;2023-08-06T09:36:58;5.70;;;1.73;;
5014;SDS011;2526;51.060;4.228;2023-08-06T09:39:27;3.92;;;1.40;;
5014;SDS011;2526;51.060;4.228;2023-08-06T09:41:56;7.20;;;1.27;;
5014;SDS011;2526;51.060;4.228;2023-08-06T09:44:52;8.27;;;1.55;;
5014;SDS011;2526;51.060;4.228;2023-08-06T09:47:56;6.97;;;2.00;;
5014;SDS011;2526;51.060;4.228;2023-08-06T09:50:48;3.55;;;1.25;;
5014;SDS011;2526;51.060;4.228;2023-08-06T09:53:20;10.20;;;1.45;;
5014;SDS011;2526;51.060;4.228;2023-08-06T09:56:07;4.18;;;1.20;;
5014;SDS011;2526;51.060;4.228;2023-08-06T09:59:06;2.10;;;0.60;;
5014;SDS011;2526;51.060;4.228;2023-08-06T10:01:34;9.35;;;1.15;;
5014;SDS011;2526;51.060;4.228;2023-08-06T10:04:05;7.78;;;0.98;;
5014;SDS011;2526;51.060;4.228;2023-08-06T10:07:03;4.43;;;1.65;;
5014;SDS011;2526;51.060;4.228;2023-08-06T10:09:37;1.83;;;0.82;;
5014;SDS011;2526;51.060;4.228;2023-08-06T10:12:32;2.53;;;0.57;;
5014;SDS011;2526;51.060;4.228;2023-08-06T10:15:31;2.35;;;0.93;;
5014;SDS011;2526;51.060;4.228;2023-08-06T10:18:29;10.98;;;1.00;;
5014;SDS011;2526;51.060;4.228;2023-08-06T10:20:59;2.83;;;0.90;;
5014;SDS011;2526;51.060;4.228;2023-08-06T10:23:35;4.05;;;1.05;;
5014;SDS011;2526;51.060;4.228;2023-08-06T10:26:00;3.38;;;0.50;;
5014;SDS011;2526;51.060;4.228;2023-08-06T10:28:38;3.70;;;0.65;;
5014;SDS011;2526;51.060;4.228;2023-08-06T10:31:05;2.67;;;0.60;;
5014;SDS011;2526;51.060;4.228;2023-08-06T10:33:45;4.82;;;1.02;;
5014;SDS011;2526;51.060;4.228;2023-08-06T10:36:11;6.20;;;0.70;;
5014;SDS011;2526;51.060;4.228;2023-08-06T10:38:44;7.53;;;0.73;;
5014;SDS011;2526;51.060;4.228;2023-08-06T10:41:09;2.80;;;1.08;;
5014;SDS011;2526;51.060;4.228;2023-08-06T10:43:52;1.85;;;1.17;;
5014;SDS011;2526;51.060;4.228;2023-08-06T10:46:30;3.00;;;0.90;;
5014;SDS011;2526;51.060;4.228;2023-08-06T10:48:55;4.22;;;1.30;;
5014;SDS011;2526;51.060;4.228;2023-08-06T10:51:21;4.45;;;1.38;;
5014;SDS011;2526;51.060;4.228;2023-08-06T10:53:47;3.03;;;0.75;;
5014;SDS011;2526;51.060;4.228;2023-08-06T10:58:39;1.83;;;0.95;;
5014;SDS011;2526;51.060;4.228;2023-08-06T11:01:05;1.88;;;0.57;;
5014;SDS011;2526;51.060;4.228;2023-08-06T11:03:31;1.42;;;0.47;;
5014;SDS011;2526;51.060;4.228;2023-08-06T11:05:56;2.40;;;0.75;;
5014;SDS011;2526;51.060;4.228;2023-08-06T11:08:28;4.95;;;1.00;;
5014;SDS011;2526;51.060;4.228;2023-08-06T11:10:55;1.10;;;0.52;;
5014;SDS011;2526;51.060;4.228;2023-08-06T11:13:20;0.50;;;0.40;;
5014;SDS011;2526;51.060;4.228;2023-08-06T11:15:46;2.00;;;0.57;;
5014;SDS011;2526;51.060;4.228;2023-08-06T11:18:11;1.15;;;0.60;;
5014;SDS011;2526;51.060;4.228;2023-08-06T11:20:37;2.60;;;1.00;;
5014;SDS011;2526;51.060;4.228;2023-08-06T11:23:03;3.97;;;0.68;;
5014;SDS011;2526;51.060;4.228;2023-08-06T11:25:29;1.02;;;0.70;;
5014;SDS011;2526;51.060;4.228;2023-08-06T11:27:55;7.65;;;0.82;;
5014;SDS011;2526;51.060;4.228;2023-08-06T11:30:20;5.72;;;0.85;;
5014;SDS011;2526;51.060;4.228;2023-08-06T11:32:46;1.63;;;0.85;;
5014;SDS011;2526;51.060;4.228;2023-08-06T11:35:15;7.10;;;1.13;;
5014;SDS011;2526;51.060;4.228;2023-08-06T11:37:45;4.65;;;1.42;;
5014;SDS011;2526;51.060;4.228;2023-08-06T11:40:11;3.03;;;1.33;;
5014;SDS011;2526;51.060;4.228;2023-08-06T11:42:37;1.83;;;1.00;;
5014;SDS011;2526;51.060;4.228;2023-08-06T11:45:03;2.78;;;1.40;;
5014;SDS011;2526;51.060;4.228;2023-08-06T11:47:29;3.47;;;1.55;;
5014;SDS011;2526;51.060;4.228;2023-08-06T11:49:55;6.60;;;1.10;;
5014;SDS011;2526;51.060;4.228;2023-08-06T11:52:24;2.05;;;1.20;;
5014;SDS011;2526;51.060;4.228;2023-08-06T11:57:36;4.82;;;1.10;;
5014;SDS011;2526;51.060;4.228;2023-08-06T12:00:05;6.30;;;1.33;;
5014;SDS011;2526;51.060;4.228;2023-08-06T12:02:31;7.90;;;0.75;;
5014;SDS011;2526;51.060;4.228;2023-08-06T12:08:02;3.97;;;1.20;;
5014;SDS011;2526;51.060;4.228;2023-08-06T12:10:59;4.18;;;1.10;;
5014;SDS011;2526;51.060;4.228;2023-08-06T12:13:51;10.85;;;1.70;;
5014;SDS011;2526;51.060;4.228;2023-08-06T12:16:41;5.53;;;1.38;;
5014;SDS011;2526;51.060;4.228;2023-08-06T12:19:27;3.13;;;0.65;;
5014;SDS011;2526;51.060;4.228;2023-08-06T12:22:12;7.93;;;1.25;;
5014;SDS011;2526;51.060;4.228;2023-08-06T12:24:39;2.15;;;1.05;;
5014;SDS011;2526;51.060;4.228;2023-08-06T12:27:29;3.75;;;0.93;;
5014;SDS011;2526;51.060;4.228;2023-08-06T12:29:59;6.20;;;1.05;;
5014;SDS011;2526;51.060;4.228;2023-08-06T12:32:49;1.80;;;0.93;;
5014;SDS011;2526;51.060;4.228;2023-08-06T12:35:16;4.38;;;1.30;;
5014;SDS011;2526;51.060;4.228;2023-08-06T12:37:46;5.35;;;1.10;;
5014;SDS011;2526;51.060;4.228;2023-08-06T12:40:11;8.10;;;1.65;;
5014;SDS011;2526;51.060;4.228;2023-08-06T12:42:37;4.05;;;1.30;;
5014;SDS011;2526;51.060;4.228;2023-08-06T12:45:02;2.28;;;0.63;;
5014;SDS011;2526;51.060;4.228;2023-08-06T12:47:28;2.97;;;2.03;;
5014;SDS011;2526;51.060;4.228;2023-08-06T12:49:53;3.03;;;0.90;;
5014;SDS011;2526;51.060;4.228;2023-08-06T12:52:19;9.18;;;1.58;;
5014;SDS011;2526;51.060;4.228;2023-08-06T12:54:45;3.17;;;1.05;;
5014;SDS011;2526;51.060;4.228;2023-08-06T12:57:11;4.07;;;1.45;;
5014;SDS011;2526;51.060;4.228;2023-08-06T12:59:36;15.70;;;1.55;;
5014;SDS011;2526;51.060;4.228;2023-08-06T13:02:02;2.60;;;1.05;;
5014;SDS011;2526;51.060;4.228;2023-08-06T13:04:28;2.08;;;0.85;;
5014;SDS011;2526;51.060;4.228;2023-08-06T13:06:53;2.78;;;1.08;;
5014;SDS011;2526;51.060;4.228;2023-08-06T13:09:19;3.33;;;1.40;;
5014;SDS011;2526;51.060;4.228;2023-08-06T13:11:44;5.00;;;1.65;;
5014;SDS011;2526;51.060;4.228;2023-08-06T13:14:12;7.57;;;0.88;;
5014;SDS011;2526;51.060;4.228;2023-08-06T13:16:39;7.38;;;0.77;;
5014;SDS011;2526;51.060;4.228;2023-08-06T13:19:05;10.00;;;2.13;;
5014;SDS011;2526;51.060;4.228;2023-08-06T13:21:31;3.97;;;1.65;;
5014;SDS011;2526;51.060;4.228;2023-08-06T13:23:57;0.47;;;0.40;;
5014;SDS011;2526;51.060;4.228;2023-08-06T13:26:22;3.92;;;2.45;;
5014;SDS011;2526;51.060;4.228;2023-08-06T13:28:48;6.47;;;1.05;;
5014;SDS011;2526;51.060;4.228;2023-08-06T13:31:14;7.43;;;1.35;;
5014;SDS011;2526;51.060;4.228;2023-08-06T13:33:40;8.23;;;1.35;;
5014;SDS011;2526;51.060;4.228;2023-08-06T13:36:05;12.32;;;1.98;;
5014;SDS011;2526;51.060;4.228;2023-08-06T13:38:32;10.82;;;1.88;;
5014;SDS011;2526;51.060;4.228;2023-08-06T13:40:58;7.68;;;2.88;;
5014;SDS011;2526;51.060;4.228;2023-08-06T13:43:24;13.07;;;2.38;;
5014;SDS011;2526;51.060;4.228;2023-08-06T13:45:49;9.35;;;1.58;;
5014;SDS011;2526;51.060;4.228;2023-08-06T13:48:15;4.50;;;1.70;;
5014;SDS011;2526;51.060;4.228;2023-08-06T13:50:40;6.32;;;1.48;;
5014;SDS011;2526;51.060;4.228;2023-08-06T13:53:06;6.13;;;1.10;;
5014;SDS011;2526;51.060;4.228;2023-08-06T13:55:31;4.47;;;0.80;;
5014;SDS011;2526;51.060;4.228;2023-08-06T13:57:57;1.52;;;0.75;;
5014;SDS011;2526;51.060;4.228;2023-08-06T14:00:22;3.25;;;1.20;;
5014;SDS011;2526;51.060;4.228;2023-08-06T14:02:49;9.07;;;1.38;;
5014;SDS011;2526;51.060;4.228;2023-08-06T14:05:15;5.88;;;1.10;;
5014;SDS011;2526;51.060;4.228;2023-08-06T14:07:40;5.80;;;0.65;;
5014;SDS011;2526;51.060;4.228;2023-08-06T14:10:06;1.35;;;0.40;;
5014;SDS011;2526;51.060;4.228;2023-08-06T14:12:31;4.00;;;1.50;;
5014;SDS011;2526;51.060;4.228;2023-08-06T14:14:57;3.13;;;0.75;;
5014;SDS011;2526;51.060;4.228;2023-08-06T14:17:22;2.92;;;1.52;;
5014;SDS011;2526;51.060;4.228;2023-08-06T14:19:48;2.15;;;1.15;;
5014;SDS011;2526;51.060;4.228;2023-08-06T14:22:13;10.85;;;1.55;;
5014;SDS011;2526;51.060;4.228;2023-08-06T14:24:39;3.67;;;0.93;;
5014;SDS011;2526;51.060;4.228;2023-08-06T14:27:04;8.10;;;0.82;;
5014;SDS011;2526;51.060;4.228;2023-08-06T14:29:31;3.85;;;1.15;;
5014;SDS011;2526;51.060;4.228;2023-08-06T14:31:56;2.33;;;0.93;;
5014;SDS011;2526;51.060;4.228;2023-08-06T14:34:22;7.13;;;1.35;;
5014;SDS011;2526;51.060;4.228;2023-08-06T14:36:47;2.08;;;0.93;;
5014;SDS011;2526;51.060;4.228;2023-08-06T14:39:13;3.85;;;1.05;;
5014;SDS011;2526;51.060;4.228;2023-08-06T14:41:39;3.85;;;1.15;;
5014;SDS011;2526;51.060;4.228;2023-08-06T14:44:04;2.60;;;0.80;;
5014;SDS011;2526;51.060;4.228;2023-08-06T14:46:30;2.28;;;0.55;;
5014;SDS011;2526;51.060;4.228;2023-08-06T14:48:55;2.78;;;1.15;;
5014;SDS011;2526;51.060;4.228;2023-08-06T14:51:21;5.50;;;0.50;;
5014;SDS011;2526;51.060;4.228;2023-08-06T14:53:46;0.70;;;0.55;;
5014;SDS011;2526;51.060;4.228;2023-08-06T14:56:12;1.55;;;0.73;;
5014;SDS011;2526;51.060;4.228;2023-08-06T14:58:37;1.45;;;0.43;;
5014;SDS011;2526;51.060;4.228;2023-08-06T15:01:03;4.38;;;0.73;;
5014;SDS011;2526;51.060;4.228;2023-08-06T15:03:28;8.55;;;0.77;;
5014;SDS011;2526;51.060;4.228;2023-08-06T15:05:56;4.00;;;0.82;;
5014;SDS011;2526;51.060;4.228;2023-08-06T15:08:21;0.80;;;0.50;;
5014;SDS011;2526;51.060;4.228;2023-08-06T15:10:50;5.07;;;1.00;;
5014;SDS011;2526;51.060;4.228;2023-08-06T15:13:17;0.95;;;0.85;;
5014;SDS011;2526;51.060;4.228;2023-08-06T15:15:42;7.63;;;0.82;;
5014;SDS011;2526;51.060;4.228;2023-08-06T15:18:09;6.70;;;0.70;;
5014;SDS011;2526;51.060;4.228;2023-08-06T15:20:36;3.95;;;0.90;;
5014;SDS011;2526;51.060;4.228;2023-08-06T15:23:01;3.17;;;1.10;;
5014;SDS011;2526;51.060;4.228;2023-08-06T15:25:27;3.90;;;1.00;;
5014;SDS011;2526;51.060;4.228;2023-08-06T15:27:53;1.05;;;0.77;;
5014;SDS011;2526;51.060;4.228;2023-08-06T15:30:18;1.02;;;0.98;;
5014;SDS011;2526;51.060;4.228;2023-08-06T15:32:45;3.05;;;0.98;;
5014;SDS011;2526;51.060;4.228;2023-08-06T15:35:12;1.95;;;1.55;;
5014;SDS011;2526;51.060;4.228;2023-08-06T15:37:37;0.68;;;0.35;;
5014;SDS011;2526;51.060;4.228;2023-08-06T15:40:03;1.45;;;0.65;;
5014;SDS011;2526;51.060;4.228;2023-08-06T15:42:29;1.10;;;0.70;;
5014;SDS011;2526;51.060;4.228;2023-08-06T15:44:54;1.00;;;0.73;;
5014;SDS011;2526;51.060;4.228;2023-08-06T15:47:20;4.13;;;0.98;;